sensor_id;sensor_type;location;lat;lon;timestamp;P1;durP1;ratioP1;P2;durP2;ratioP2
13366;SDS011;6752;52.612;13.630;2022-08-25T00:04:11;15.60;;;8.43;;
13366;SDS011;6752;52.612;13.630;2022-08-25T00:09:13;15.23;;;7.93;;
13366;SDS011;6752;52.612;13.630;2022-08-25T00:14:19;16.02;;;8.10;;
13366;SDS011;6752;52.612;13.630;2022-08-25T00:19:22;12.45;;;8.73;;
13366;SDS011;6752;52.612;13.630;2022-08-25T00:24:22;13.35;;;7.07;;
13366;SDS011;6752;52.612;13.630;2022-08-25T00:34:28;13.02;;;7.95;;
13366;SDS011;6752;52.612;13.630;2022-08-25T00:44:31;15.10;;;8.23;;
13366;SDS011;6752;52.612;13.630;2022-08-25T00:49:44;13.80;;;8.48;;
13366;SDS011;6752;52.612;13.630;2022-08-25T00:59:46;17.55;;;9.43;;
13366;SDS011;6752;52.612;13.630;2022-08-25T01:04:49;16.48;;;8.77;;
13366;SDS011;6752;52.612;13.630;2022-08-25T01:09:51;15.43;;;9.27;;
13366;SDS011;6752;52.612;13.630;2022-08-25T01:14:53;15.40;;;9.93;;
13366;SDS011;6752;52.612;13.630;2022-08-25T01:19:56;15.65;;;9.57;;
13366;SDS011;6752;52.612;13.630;2022-08-25T01:24:59;19.08;;;9.80;;
13366;SDS011;6752;52.612;13.630;2022-08-25T01:30:01;15.60;;;10.02;;
13366;SDS011;6752;52.612;13.630;2022-08-25T01:35:03;16.50;;;10.05;;
13366;SDS011;6752;52.612;13.630;2022-08-25T01:40:08;13.85;;;9.30;;
13366;SDS011;6752;52.612;13.630;2022-08-25T01:45:10;21.62;;;10.00;;
13366;SDS011;6752;52.612;13.630;2022-08-25T01:50:13;17.95;;;9.52;;
13366;SDS011;6752;52.612;13.630;2022-08-25T01:55:15;13.77;;;8.93;;
13366;SDS011;6752;52.612;13.630;2022-08-25T02:00:18;20.27;;;9.18;;
13366;SDS011;6752;52.612;13.630;2022-08-25T02:05:20;15.48;;;9.50;;
13366;SDS011;6752;52.612;13.630;2022-08-25T02:10:22;18.98;;;8.98;;
13366;SDS011;6752;52.612;13.630;2022-08-25T02:15:25;15.57;;;9.57;;
13366;SDS011;6752;52.612;13.630;2022-08-25T02:20:27;18.48;;;10.82;;
13366;SDS011;6752;52.612;13.630;2022-08-25T02:25:32;15.85;;;9.00;;
13366;SDS011;6752;52.612;13.630;2022-08-25T02:30:35;13.05;;;10.32;;
13366;SDS011;6752;52.612;13.630;2022-08-25T02:35:37;14.52;;;10.38;;
13366;SDS011;6752;52.612;13.630;2022-08-25T02:40:39;14.70;;;9.77;;
13366;SDS011;6752;52.612;13.630;2022-08-25T02:45:42;17.48;;;11.12;;
13366;SDS011;6752;52.612;13.630;2022-08-25T02:50:47;15.10;;;11.40;;
13366;SDS011;6752;52.612;13.630;2022-08-25T02:55:49;18.65;;;10.93;;
13366;SDS011;6752;52.612;13.630;2022-08-25T03:00:52;17.95;;;11.45;;
13366;SDS011;6752;52.612;13.630;2022-08-25T03:05:54;20.23;;;12.05;;
13366;SDS011;6752;52.612;13.630;2022-08-25T03:10:56;16.73;;;12.85;;
13366;SDS011;6752;52.612;13.630;2022-08-25T03:15:59;21.45;;;15.35;;
13366;SDS011;6752;52.612;13.630;2022-08-25T03:21:01;21.75;;;16.42;;
13366;SDS011;6752;52.612;13.630;2022-08-25T03:26:04;24.95;;;16.98;;
13366;SDS011;6752;52.612;13.630;2022-08-25T03:31:24;22.80;;;16.45;;
13366;SDS011;6752;52.612;13.630;2022-08-25T03:36:26;22.02;;;17.95;;
13366;SDS011;6752;52.612;13.630;2022-08-25T03:41:29;26.02;;;18.17;;
13366;SDS011;6752;52.612;13.630;2022-08-25T03:46:32;21.17;;;16.73;;
13366;SDS011;6752;52.612;13.630;2022-08-25T03:51:35;22.95;;;17.87;;
13366;SDS011;6752;52.612;13.630;2022-08-25T03:56:36;24.65;;;17.25;;
13366;SDS011;6752;52.612;13.630;2022-08-25T04:01:39;26.08;;;17.92;;
13366;SDS011;6752;52.612;13.630;2022-08-25T04:06:41;21.58;;;16.55;;
13366;SDS011;6752;52.612;13.630;2022-08-25T04:11:43;22.65;;;16.92;;
13366;SDS011;6752;52.612;13.630;2022-08-25T04:21:47;28.77;;;17.17;;
13366;SDS011;6752;52.612;13.630;2022-08-25T04:26:50;24.90;;;16.33;;
13366;SDS011;6752;52.612;13.630;2022-08-25T04:31:53;32.97;;;18.73;;
13366;SDS011;6752;52.612;13.630;2022-08-25T04:36:59;51.08;;;19.52;;
13366;SDS011;6752;52.612;13.630;2022-08-25T04:41:57;26.75;;;19.30;;
13366;SDS011;6752;52.612;13.630;2022-08-25T04:47:02;29.92;;;17.80;;
13366;SDS011;6752;52.612;13.630;2022-08-25T04:52:05;33.22;;;20.45;;
13366;SDS011;6752;52.612;13.630;2022-08-25T04:57:07;31.08;;;19.73;;
13366;SDS011;6752;52.612;13.630;2022-08-25T05:12:13;36.60;;;23.25;;
13366;SDS011;6752;52.612;13.630;2022-08-25T05:17:15;31.52;;;22.92;;
13366;SDS011;6752;52.612;13.630;2022-08-25T05:22:21;32.28;;;21.92;;
13366;SDS011;6752;52.612;13.630;2022-08-25T05:27:20;46.10;;;25.52;;
13366;SDS011;6752;52.612;13.630;2022-08-25T05:37:24;35.33;;;24.17;;
13366;SDS011;6752;52.612;13.630;2022-08-25T05:42:27;42.60;;;25.98;;
13366;SDS011;6752;52.612;13.630;2022-08-25T05:47:29;37.78;;;25.17;;
13366;SDS011;6752;52.612;13.630;2022-08-25T05:52:32;44.70;;;27.90;;
13366;SDS011;6752;52.612;13.630;2022-08-25T05:57:34;49.28;;;28.85;;
13366;SDS011;6752;52.612;13.630;2022-08-25T06:02:37;41.60;;;26.52;;
13366;SDS011;6752;52.612;13.630;2022-08-25T06:07:42;44.05;;;26.83;;
13366;SDS011;6752;52.612;13.630;2022-08-25T06:12:44;41.95;;;25.77;;
13366;SDS011;6752;52.612;13.630;2022-08-25T06:17:47;42.15;;;28.12;;
13366;SDS011;6752;52.612;13.630;2022-08-25T06:22:49;49.88;;;27.62;;
13366;SDS011;6752;52.612;13.630;2022-08-25T06:27:52;45.95;;;29.70;;
13366;SDS011;6752;52.612;13.630;2022-08-25T06:32:54;45.10;;;28.77;;
13366;SDS011;6752;52.612;13.630;2022-08-25T06:37:56;51.45;;;30.83;;
13366;SDS011;6752;52.612;13.630;2022-08-25T06:42:58;53.97;;;31.17;;
13366;SDS011;6752;52.612;13.630;2022-08-25T06:48:01;55.70;;;32.42;;
13366;SDS011;6752;52.612;13.630;2022-08-25T06:53:03;55.47;;;32.83;;
13366;SDS011;6752;52.612;13.630;2022-08-25T06:58:06;48.40;;;33.35;;
13366;SDS011;6752;52.612;13.630;2022-08-25T07:03:08;47.45;;;31.20;;
13366;SDS011;6752;52.612;13.630;2022-08-25T07:08:10;41.28;;;30.55;;
13366;SDS011;6752;52.612;13.630;2022-08-25T07:13:13;38.75;;;25.08;;
13366;SDS011;6752;52.612;13.630;2022-08-25T07:18:15;37.33;;;24.77;;
13366;SDS011;6752;52.612;13.630;2022-08-25T07:23:17;27.80;;;20.65;;
13366;SDS011;6752;52.612;13.630;2022-08-25T07:28:21;32.15;;;20.65;;
13366;SDS011;6752;52.612;13.630;2022-08-25T07:33:22;28.58;;;20.70;;
13366;SDS011;6752;52.612;13.630;2022-08-25T07:38:24;28.25;;;20.88;;
13366;SDS011;6752;52.612;13.630;2022-08-25T07:43:27;22.45;;;17.87;;
13366;SDS011;6752;52.612;13.630;2022-08-25T07:58:33;24.23;;;18.37;;
13366;SDS011;6752;52.612;13.630;2022-08-25T08:03:35;19.27;;;15.73;;
13366;SDS011;6752;52.612;13.630;2022-08-25T08:08:38;20.50;;;14.98;;
13366;SDS011;6752;52.612;13.630;2022-08-25T08:13:40;19.00;;;14.87;;
13366;SDS011;6752;52.612;13.630;2022-08-25T08:18:43;17.90;;;14.93;;
13366;SDS011;6752;52.612;13.630;2022-08-25T08:23:45;19.50;;;15.48;;
13366;SDS011;6752;52.612;13.630;2022-08-25T08:28:47;18.17;;;14.27;;
13366;SDS011;6752;52.612;13.630;2022-08-25T08:33:50;19.52;;;13.23;;
13366;SDS011;6752;52.612;13.630;2022-08-25T08:38:52;17.23;;;14.15;;
13366;SDS011;6752;52.612;13.630;2022-08-25T08:44:17;20.08;;;15.13;;
13366;SDS011;6752;52.612;13.630;2022-08-25T08:49:09;20.83;;;15.43;;
13366;SDS011;6752;52.612;13.630;2022-08-25T08:54:09;21.23;;;15.45;;
13366;SDS011;6752;52.612;13.630;2022-08-25T08:59:23;19.58;;;14.45;;
13366;SDS011;6752;52.612;13.630;2022-08-25T09:04:29;17.00;;;12.87;;
13366;SDS011;6752;52.612;13.630;2022-08-25T09:09:32;17.77;;;13.55;;
13366;SDS011;6752;52.612;13.630;2022-08-25T09:14:49;17.67;;;12.60;;
13366;SDS011;6752;52.612;13.630;2022-08-25T09:26:19;14.70;;;9.35;;
13366;SDS011;6752;52.612;13.630;2022-08-25T09:30:43;17.85;;;10.20;;
13366;SDS011;6752;52.612;13.630;2022-08-25T09:35:42;13.23;;;10.07;;
13366;SDS011;6752;52.612;13.630;2022-08-25T09:40:46;12.75;;;8.35;;
13366;SDS011;6752;52.612;13.630;2022-08-25T09:50:50;16.12;;;8.85;;
13366;SDS011;6752;52.612;13.630;2022-08-25T10:01:01;16.65;;;6.72;;
13366;SDS011;6752;52.612;13.630;2022-08-25T10:06:03;15.13;;;6.63;;
13366;SDS011;6752;52.612;13.630;2022-08-25T10:11:06;17.15;;;6.70;;
13366;SDS011;6752;52.612;13.630;2022-08-25T10:16:08;13.68;;;6.10;;
13366;SDS011;6752;52.612;13.630;2022-08-25T10:21:10;13.83;;;5.83;;
13366;SDS011;6752;52.612;13.630;2022-08-25T10:26:18;14.87;;;5.78;;
13366;SDS011;6752;52.612;13.630;2022-08-25T10:31:25;14.30;;;5.60;;
13366;SDS011;6752;52.612;13.630;2022-08-25T10:36:29;9.82;;;5.45;;
13366;SDS011;6752;52.612;13.630;2022-08-25T10:41:45;12.60;;;5.28;;
13366;SDS011;6752;52.612;13.630;2022-08-25T10:46:51;11.63;;;5.40;;
13366;SDS011;6752;52.612;13.630;2022-08-25T10:52:11;14.75;;;4.95;;
13366;SDS011;6752;52.612;13.630;2022-08-25T11:18:32;11.90;;;4.53;;
13366;SDS011;6752;52.612;13.630;2022-08-25T11:23:56;11.95;;;5.32;;
13366;SDS011;6752;52.612;13.630;2022-08-25T11:28:53;16.73;;;5.20;;
13366;SDS011;6752;52.612;13.630;2022-08-25T11:33:54;15.68;;;5.68;;
13366;SDS011;6752;52.612;13.630;2022-08-25T11:44:08;21.25;;;6.15;;
13366;SDS011;6752;52.612;13.630;2022-08-25T12:04:51;14.43;;;4.95;;
13366;SDS011;6752;52.612;13.630;2022-08-25T12:14:55;16.00;;;5.30;;
13366;SDS011;6752;52.612;13.630;2022-08-25T12:19:58;13.80;;;5.43;;
13366;SDS011;6752;52.612;13.630;2022-08-25T12:25:03;25.95;;;9.52;;
13366;SDS011;6752;52.612;13.630;2022-08-25T12:40:26;15.60;;;5.53;;
13366;SDS011;6752;52.612;13.630;2022-08-25T12:45:37;16.27;;;5.55;;
13366;SDS011;6752;52.612;13.630;2022-08-25T12:50:40;17.08;;;5.10;;
13366;SDS011;6752;52.612;13.630;2022-08-25T12:55:45;14.90;;;5.28;;
13366;SDS011;6752;52.612;13.630;2022-08-25T13:06:12;14.75;;;4.82;;
13366;SDS011;6752;52.612;13.630;2022-08-25T13:11:40;10.18;;;4.72;;
13366;SDS011;6752;52.612;13.630;2022-08-25T13:16:50;20.50;;;5.07;;
13366;SDS011;6752;52.612;13.630;2022-08-25T13:21:43;17.00;;;5.45;;
13366;SDS011;6752;52.612;13.630;2022-08-25T13:26:45;13.07;;;5.43;;
13366;SDS011;6752;52.612;13.630;2022-08-25T13:31:57;19.95;;;5.15;;
13366;SDS011;6752;52.612;13.630;2022-08-25T13:37:09;14.95;;;5.30;;
13366;SDS011;6752;52.612;13.630;2022-08-25T13:52:32;13.65;;;4.95;;
13366;SDS011;6752;52.612;13.630;2022-08-25T13:57:34;17.87;;;5.45;;
13366;SDS011;6752;52.612;13.630;2022-08-25T14:07:51;15.82;;;5.05;;
13366;SDS011;6752;52.612;13.630;2022-08-25T14:13:06;16.00;;;5.00;;
13366;SDS011;6752;52.612;13.630;2022-08-25T14:18:00;11.43;;;4.28;;
13366;SDS011;6752;52.612;13.630;2022-08-25T14:23:09;20.12;;;5.60;;
13366;SDS011;6752;52.612;13.630;2022-08-25T14:28:08;14.07;;;4.87;;
13366;SDS011;6752;52.612;13.630;2022-08-25T14:33:09;11.65;;;4.35;;
13366;SDS011;6752;52.612;13.630;2022-08-25T14:38:11;17.60;;;4.15;;
13366;SDS011;6752;52.612;13.630;2022-08-25T14:43:17;18.50;;;5.55;;
13366;SDS011;6752;52.612;13.630;2022-08-25T14:48:18;15.88;;;4.57;;
13366;SDS011;6752;52.612;13.630;2022-08-25T14:53:18;17.15;;;5.20;;
13366;SDS011;6752;52.612;13.630;2022-08-25T14:58:21;17.80;;;5.50;;
13366;SDS011;6752;52.612;13.630;2022-08-25T15:03:29;15.23;;;4.72;;
13366;SDS011;6752;52.612;13.630;2022-08-25T15:08:32;18.77;;;5.40;;
13366;SDS011;6752;52.612;13.630;2022-08-25T15:13:53;13.18;;;4.55;;
13366;SDS011;6752;52.612;13.630;2022-08-25T15:18:55;18.75;;;5.25;;
13366;SDS011;6752;52.612;13.630;2022-08-25T15:23:57;17.05;;;4.72;;
13366;SDS011;6752;52.612;13.630;2022-08-25T15:29:00;19.35;;;4.90;;
13366;SDS011;6752;52.612;13.630;2022-08-25T15:34:02;17.85;;;5.22;;
13366;SDS011;6752;52.612;13.630;2022-08-25T15:39:05;21.70;;;5.12;;
13366;SDS011;6752;52.612;13.630;2022-08-25T15:44:07;19.75;;;4.35;;
13366;SDS011;6752;52.612;13.630;2022-08-25T15:49:09;16.08;;;5.10;;
13366;SDS011;6752;52.612;13.630;2022-08-25T15:54:12;18.23;;;5.37;;
13366;SDS011;6752;52.612;13.630;2022-08-25T15:59:14;27.75;;;6.35;;
13366;SDS011;6752;52.612;13.630;2022-08-25T16:04:16;30.95;;;5.80;;
13366;SDS011;6752;52.612;13.630;2022-08-25T16:09:19;19.75;;;5.37;;
13366;SDS011;6752;52.612;13.630;2022-08-25T16:14:21;22.23;;;5.70;;
13366;SDS011;6752;52.612;13.630;2022-08-25T16:34:29;25.37;;;6.12;;
13366;SDS011;6752;52.612;13.630;2022-08-25T16:39:31;22.27;;;5.97;;
13366;SDS011;6752;52.612;13.630;2022-08-25T16:44:34;24.45;;;5.40;;
13366;SDS011;6752;52.612;13.630;2022-08-25T16:49:36;22.85;;;5.37;;
13366;SDS011;6752;52.612;13.630;2022-08-25T16:54:39;23.80;;;7.15;;
13366;SDS011;6752;52.612;13.630;2022-08-25T16:59:59;25.02;;;4.95;;
13366;SDS011;6752;52.612;13.630;2022-08-25T17:05:01;22.40;;;5.53;;
13366;SDS011;6752;52.612;13.630;2022-08-25T17:10:04;18.42;;;6.00;;
13366;SDS011;6752;52.612;13.630;2022-08-25T17:15:06;21.17;;;5.90;;
13366;SDS011;6752;52.612;13.630;2022-08-25T17:20:08;26.35;;;5.32;;
13366;SDS011;6752;52.612;13.630;2022-08-25T17:25:11;24.52;;;5.93;;
13366;SDS011;6752;52.612;13.630;2022-08-25T17:30:13;20.77;;;5.87;;
13366;SDS011;6752;52.612;13.630;2022-08-25T17:40:17;22.48;;;5.57;;
13366;SDS011;6752;52.612;13.630;2022-08-25T17:45:20;23.50;;;6.37;;
13366;SDS011;6752;52.612;13.630;2022-08-25T17:50:22;20.85;;;5.78;;
13366;SDS011;6752;52.612;13.630;2022-08-25T17:55:25;19.45;;;5.80;;
13366;SDS011;6752;52.612;13.630;2022-08-25T18:00:27;16.20;;;5.37;;
13366;SDS011;6752;52.612;13.630;2022-08-25T18:05:30;25.80;;;5.07;;
13366;SDS011;6752;52.612;13.630;2022-08-25T18:10:32;20.45;;;5.70;;
13366;SDS011;6752;52.612;13.630;2022-08-25T18:15:34;18.95;;;5.50;;
13366;SDS011;6752;52.612;13.630;2022-08-25T18:20:36;22.98;;;5.68;;
13366;SDS011;6752;52.612;13.630;2022-08-25T18:25:39;20.80;;;5.37;;
13366;SDS011;6752;52.612;13.630;2022-08-25T18:35:43;19.05;;;5.37;;
13366;SDS011;6752;52.612;13.630;2022-08-25T18:40:45;20.60;;;6.28;;
13366;SDS011;6752;52.612;13.630;2022-08-25T18:45:48;22.63;;;6.27;;
13366;SDS011;6752;52.612;13.630;2022-08-25T18:50:50;16.37;;;5.30;;
13366;SDS011;6752;52.612;13.630;2022-08-25T18:55:52;19.12;;;5.62;;
13366;SDS011;6752;52.612;13.630;2022-08-25T19:00:55;20.62;;;5.90;;
13366;SDS011;6752;52.612;13.630;2022-08-25T19:05:57;25.60;;;6.65;;
13366;SDS011;6752;52.612;13.630;2022-08-25T19:26:11;24.23;;;6.72;;
13366;SDS011;6752;52.612;13.630;2022-08-25T19:31:14;17.37;;;5.28;;
13366;SDS011;6752;52.612;13.630;2022-08-25T19:36:16;17.10;;;5.72;;
13366;SDS011;6752;52.612;13.630;2022-08-25T19:41:19;21.05;;;5.40;;
13366;SDS011;6752;52.612;13.630;2022-08-25T19:46:21;16.10;;;5.62;;
13366;SDS011;6752;52.612;13.630;2022-08-25T19:51:23;18.25;;;6.32;;
13366;SDS011;6752;52.612;13.630;2022-08-25T19:56:25;13.85;;;5.78;;
13366;SDS011;6752;52.612;13.630;2022-08-25T20:01:28;16.52;;;5.78;;
13366;SDS011;6752;52.612;13.630;2022-08-25T20:06:30;17.75;;;5.93;;
13366;SDS011;6752;52.612;13.630;2022-08-25T20:11:32;13.50;;;5.55;;
13366;SDS011;6752;52.612;13.630;2022-08-25T20:16:35;20.25;;;7.12;;
13366;SDS011;6752;52.612;13.630;2022-08-25T20:26:39;21.10;;;6.68;;
13366;SDS011;6752;52.612;13.630;2022-08-25T20:36:43;19.77;;;6.72;;
13366;SDS011;6752;52.612;13.630;2022-08-25T20:41:46;18.52;;;6.25;;
13366;SDS011;6752;52.612;13.630;2022-08-25T20:46:48;15.68;;;6.07;;
13366;SDS011;6752;52.612;13.630;2022-08-25T20:56:52;15.15;;;5.72;;
13366;SDS011;6752;52.612;13.630;2022-08-25T21:01:57;11.82;;;6.70;;
13366;SDS011;6752;52.612;13.630;2022-08-25T21:07:00;19.17;;;6.87;;
13366;SDS011;6752;52.612;13.630;2022-08-25T21:12:02;18.67;;;6.68;;
13366;SDS011;6752;52.612;13.630;2022-08-25T21:17:04;17.65;;;7.35;;
13366;SDS011;6752;52.612;13.630;2022-08-25T21:22:07;15.60;;;6.93;;
13366;SDS011;6752;52.612;13.630;2022-08-25T21:27:09;18.20;;;7.20;;
13366;SDS011;6752;52.612;13.630;2022-08-25T21:32:11;20.50;;;7.43;;
13366;SDS011;6752;52.612;13.630;2022-08-25T21:37:14;17.27;;;6.97;;
13366;SDS011;6752;52.612;13.630;2022-08-25T21:42:17;20.95;;;7.30;;
13366;SDS011;6752;52.612;13.630;2022-08-25T21:47:19;24.37;;;8.55;;
13366;SDS011;6752;52.612;13.630;2022-08-25T21:52:21;24.05;;;8.55;;
13366;SDS011;6752;52.612;13.630;2022-08-25T21:57:23;14.50;;;7.60;;
13366;SDS011;6752;52.612;13.630;2022-08-25T22:02:26;22.23;;;8.45;;
13366;SDS011;6752;52.612;13.630;2022-08-25T22:07:28;17.83;;;7.80;;
13366;SDS011;6752;52.612;13.630;2022-08-25T22:12:30;20.42;;;7.97;;
13366;SDS011;6752;52.612;13.630;2022-08-25T22:17:33;14.82;;;7.37;;
13366;SDS011;6752;52.612;13.630;2022-08-25T22:27:37;22.83;;;8.30;;
13366;SDS011;6752;52.612;13.630;2022-08-25T22:32:39;17.27;;;8.55;;
13366;SDS011;6752;52.612;13.630;2022-08-25T22:37:42;22.20;;;7.93;;
13366;SDS011;6752;52.612;13.630;2022-08-25T22:42:44;16.75;;;8.10;;
13366;SDS011;6752;52.612;13.630;2022-08-25T22:47:46;16.70;;;8.13;;
13366;SDS011;6752;52.612;13.630;2022-08-25T22:52:49;20.58;;;8.68;;
13366;SDS011;6752;52.612;13.630;2022-08-25T22:57:51;17.00;;;8.48;;
13366;SDS011;6752;52.612;13.630;2022-08-25T23:02:54;20.83;;;8.40;;
13366;SDS011;6752;52.612;13.630;2022-08-25T23:07:56;17.10;;;8.50;;
13366;SDS011;6752;52.612;13.630;2022-08-25T23:12:58;21.48;;;9.07;;
13366;SDS011;6752;52.612;13.630;2022-08-25T23:18:01;18.00;;;8.63;;
13366;SDS011;6752;52.612;13.630;2022-08-25T23:23:03;18.52;;;9.10;;
13366;SDS011;6752;52.612;13.630;2022-08-25T23:28:05;19.85;;;9.20;;
13366;SDS011;6752;52.612;13.630;2022-08-25T23:33:08;18.27;;;9.30;;
13366;SDS011;6752;52.612;13.630;2022-08-25T23:38:10;20.23;;;8.65;;
13366;SDS011;6752;52.612;13.630;2022-08-25T23:43:13;17.85;;;8.73;;
13366;SDS011;6752;52.612;13.630;2022-08-25T23:48:15;19.12;;;9.02;;
13366;SDS011;6752;52.612;13.630;2022-08-25T23:53:17;20.85;;;8.95;;
13366;SDS011;6752;52.612;13.630;2022-08-25T23:58:20;16.58;;;8.77;;
